DLH713 RKSI-EDDF
Flight info
| Callsign | DLH713 |
|---|---|
| Flight time | N/A |
| Altitude | 21700 |
| Route | NOPIK2Y NOPIK Y697 AGAVO/K0785S0660 A591 IKEKA W4 HCH W200 DOVIV W55 PAMRU W34 VYK B215 LEBOM W104 VEXEB W47 IDSOT W48 DKO W66 NUKTI/K0863S1160 B215 FKG A368 TCH/K0887S1040 A368 SARIN/K0887F340 N161 MADEV/K0891F380 N161 TITIL/K0874F400 N161 GASBI/N0476F400 N161 LEYLA N644 BADIR DCT NOLGA UN61 TBN UM11 CRM UL746 ODERO DCT OPT DCT TEGRI DCT ARSIN DCT SUBEN DCT AKINI T161 DEBHI DEBHI1B |
| Aircraft | A346/H-SDE2E3FGHIJ3J4J5M1RWXY/LB1D1 |
Departure
| Time | N/A |
|---|---|
| Airport | Incheon International Airport (RKSI) |
Arrival
| Time | 2026-04-17 10:46 |
|---|---|
| Airport | Frankfurt Main Airport (EDDF) |
| Time | Latitude | Longitude | Altitude | Speed | Heading |
|---|---|---|---|---|---|
| 2026-04-17 10:08 | 48.39298 | 13.51909 | 36266 ft | 442 kts | 292° |
| 2026-04-17 10:09 | 48.41376 | 13.43177 | 36257 ft | 443 kts | 292° |
| 2026-04-17 10:09 | 48.43440 | 13.34460 | 36261 ft | 443 kts | 292° |
| 2026-04-17 10:10 | 48.45687 | 13.25801 | 36262 ft | 442 kts | 294° |
| 2026-04-17 10:11 | 48.49090 | 13.12892 | 36263 ft | 443 kts | 294° |
| 2026-04-17 10:11 | 48.51361 | 13.04241 | 36241 ft | 443 kts | 294° |
| 2026-04-17 10:12 | 48.53635 | 12.95555 | 36259 ft | 445 kts | 293° |
| 2026-04-17 10:12 | 48.55902 | 12.86847 | 36261 ft | 445 kts | 293° |
| 2026-04-17 10:13 | 48.58169 | 12.78111 | 36263 ft | 445 kts | 293° |
| 2026-04-17 10:13 | 48.60410 | 12.69445 | 36278 ft | 445 kts | 293° |
| 2026-04-17 10:14 | 48.62652 | 12.60740 | 36259 ft | 443 kts | 293° |
| 2026-04-17 10:14 | 48.64887 | 12.52039 | 36257 ft | 442 kts | 293° |
| 2026-04-17 10:15 | 48.67100 | 12.43391 | 36260 ft | 442 kts | 293° |
| 2026-04-17 10:15 | 48.69320 | 12.34687 | 36259 ft | 442 kts | 293° |
| 2026-04-17 10:16 | 48.71533 | 12.25970 | 36244 ft | 442 kts | 293° |
| 2026-04-17 10:16 | 48.73664 | 12.17195 | 36257 ft | 444 kts | 290° |
| 2026-04-17 10:17 | 48.75289 | 12.08115 | 36258 ft | 446 kts | 285° |
| 2026-04-17 10:17 | 48.76394 | 11.98875 | 36262 ft | 447 kts | 282° |
| 2026-04-17 10:18 | 48.77408 | 11.89550 | 36265 ft | 447 kts | 282° |
| 2026-04-17 10:18 | 48.78416 | 11.80201 | 36262 ft | 448 kts | 282° |
| 2026-04-17 10:19 | 48.79406 | 11.70905 | 36272 ft | 448 kts | 282° |
| 2026-04-17 10:19 | 48.80393 | 11.61529 | 36275 ft | 448 kts | 281° |
| 2026-04-17 10:20 | 48.81364 | 11.52156 | 36275 ft | 448 kts | 281° |
| 2026-04-17 10:20 | 48.82323 | 11.42843 | 36262 ft | 448 kts | 281° |
| 2026-04-17 10:21 | 48.83465 | 11.33528 | 36266 ft | 446 kts | 287° |
| 2026-04-17 10:21 | 48.85643 | 11.24716 | 36271 ft | 444 kts | 297° |
| 2026-04-17 10:22 | 48.88891 | 11.16736 | 36266 ft | 443 kts | 308° |
| 2026-04-17 10:22 | 48.93046 | 11.09883 | 36265 ft | 443 kts | 316° |
| 2026-04-17 10:23 | 48.97623 | 11.03564 | 36251 ft | 444 kts | 317° |
| 2026-04-17 10:23 | 49.02177 | 10.97204 | 36260 ft | 444 kts | 316° |
| 2026-04-17 10:24 | 49.06696 | 10.90846 | 36258 ft | 444 kts | 316° |
| 2026-04-17 10:24 | 49.11241 | 10.84431 | 36254 ft | 444 kts | 316° |
| 2026-04-17 10:25 | 49.15008 | 10.79100 | 36221 ft | 444 kts | 316° |
| 2026-04-17 10:25 | 49.17284 | 10.75874 | 35601 ft | 447 kts | 316° |
| 2026-04-17 10:25 | 49.19567 | 10.72586 | 34739 ft | 450 kts | 315° |
| 2026-04-17 10:25 | 49.21780 | 10.69168 | 33841 ft | 452 kts | 314° |
| 2026-04-17 10:26 | 49.23986 | 10.65704 | 32882 ft | 455 kts | 314° |
| 2026-04-17 10:26 | 49.26167 | 10.62263 | 31992 ft | 457 kts | 314° |
| 2026-04-17 10:26 | 49.28415 | 10.58712 | 31096 ft | 459 kts | 314° |
| 2026-04-17 10:26 | 49.30618 | 10.55229 | 30236 ft | 461 kts | 314° |
| 2026-04-17 10:27 | 49.32847 | 10.51703 | 29445 ft | 459 kts | 314° |
| 2026-04-17 10:27 | 49.34999 | 10.48114 | 28750 ft | 455 kts | 311° |
| 2026-04-17 10:27 | 49.36998 | 10.44351 | 28056 ft | 452 kts | 308° |
| 2026-04-17 10:27 | 49.38847 | 10.40464 | 27391 ft | 449 kts | 306° |
| 2026-04-17 10:28 | 49.40646 | 10.36550 | 26742 ft | 446 kts | 306° |
| 2026-04-17 10:28 | 49.42418 | 10.32662 | 26186 ft | 441 kts | 306° |
| 2026-04-17 10:28 | 49.44168 | 10.28818 | 25607 ft | 434 kts | 306° |
| 2026-04-17 10:28 | 49.45880 | 10.25056 | 25113 ft | 424 kts | 306° |
| 2026-04-17 10:29 | 49.47554 | 10.21374 | 24633 ft | 414 kts | 306° |
| 2026-04-17 10:29 | 49.49189 | 10.17777 | 24154 ft | 406 kts | 306° |
| 2026-04-17 10:29 | 49.50790 | 10.14248 | 23663 ft | 397 kts | 306° |
| 2026-04-17 10:29 | 49.52358 | 10.10786 | 23114 ft | 390 kts | 306° |
| 2026-04-17 10:30 | 49.53879 | 10.07425 | 22596 ft | 383 kts | 306° |
| 2026-04-17 10:30 | 49.55385 | 10.04088 | 22081 ft | 377 kts | 306° |
| 2026-04-17 10:30 | 49.56881 | 10.00770 | 21559 ft | 375 kts | 305° |
| 2026-04-17 10:30 | 49.58360 | 9.97486 | 21066 ft | 373 kts | 305° |
| 2026-04-17 10:31 | 49.59834 | 9.94200 | 20549 ft | 371 kts | 305° |
| 2026-04-17 10:31 | 49.61298 | 9.90935 | 20047 ft | 369 kts | 305° |
| 2026-04-17 10:31 | 49.62757 | 9.87682 | 19560 ft | 367 kts | 305° |
| 2026-04-17 10:31 | 49.64208 | 9.84439 | 19080 ft | 365 kts | 305° |
| 2026-04-17 10:32 | 49.65650 | 9.81215 | 18608 ft | 364 kts | 305° |
| 2026-04-17 10:32 | 49.67086 | 9.78002 | 18070 ft | 362 kts | 305° |
| 2026-04-17 10:32 | 49.68515 | 9.74804 | 17555 ft | 361 kts | 305° |
| 2026-04-17 10:32 | 49.69940 | 9.71611 | 17015 ft | 359 kts | 305° |
| 2026-04-17 10:33 | 49.71393 | 9.68485 | 16493 ft | 357 kts | 311° |
| 2026-04-17 10:33 | 49.73300 | 9.66124 | 15965 ft | 356 kts | 327° |
| 2026-04-17 10:33 | 49.75418 | 9.64163 | 15474 ft | 354 kts | 329° |
| 2026-04-17 10:33 | 49.77545 | 9.62245 | 14965 ft | 352 kts | 329° |
| 2026-04-17 10:34 | 49.79653 | 9.60309 | 14503 ft | 351 kts | 329° |
| 2026-04-17 10:34 | 49.81742 | 9.58353 | 14020 ft | 349 kts | 328° |
| 2026-04-17 10:34 | 49.83816 | 9.56382 | 13485 ft | 348 kts | 328° |
| 2026-04-17 10:34 | 49.85877 | 9.54407 | 12959 ft | 347 kts | 328° |
| 2026-04-17 10:35 | 49.87900 | 9.52457 | 12445 ft | 345 kts | 328° |
| 2026-04-17 10:35 | 49.89939 | 9.50483 | 11940 ft | 344 kts | 328° |
| 2026-04-17 10:35 | 49.91970 | 9.48511 | 11426 ft | 343 kts | 328° |
| 2026-04-17 10:35 | 49.93990 | 9.46546 | 10932 ft | 342 kts | 328° |
| 2026-04-17 10:36 | 49.96000 | 9.44588 | 10560 ft | 337 kts | 328° |
| 2026-04-17 10:36 | 49.97966 | 9.42672 | 10314 ft | 329 kts | 328° |
| 2026-04-17 10:36 | 49.99879 | 9.40805 | 10057 ft | 320 kts | 327° |
| 2026-04-17 10:36 | 50.01740 | 9.38988 | 9791 ft | 313 kts | 327° |
| 2026-04-17 10:37 | 50.03569 | 9.37202 | 9516 ft | 306 kts | 327° |
| 2026-04-17 10:37 | 50.05327 | 9.35480 | 9246 ft | 299 kts | 327° |
| 2026-04-17 10:37 | 50.07074 | 9.33772 | 8982 ft | 293 kts | 327° |
| 2026-04-17 10:37 | 50.08784 | 9.32094 | 8717 ft | 287 kts | 327° |
| 2026-04-17 10:38 | 50.10457 | 9.30452 | 8453 ft | 281 kts | 327° |
| 2026-04-17 10:38 | 50.12104 | 9.28834 | 8193 ft | 278 kts | 327° |
| 2026-04-17 10:38 | 50.13741 | 9.27221 | 7941 ft | 278 kts | 327° |
| 2026-04-17 10:38 | 50.15380 | 9.25608 | 7690 ft | 278 kts | 327° |
| 2026-04-17 10:39 | 50.16930 | 9.23821 | 7404 ft | 275 kts | 310° |
| 2026-04-17 10:39 | 50.17829 | 9.21274 | 7151 ft | 272 kts | 282° |
| 2026-04-17 10:39 | 50.17904 | 9.18352 | 6922 ft | 269 kts | 259° |
| 2026-04-17 10:39 | 50.17427 | 9.15529 | 6682 ft | 268 kts | 252° |
| 2026-04-17 10:40 | 50.16882 | 9.12741 | 6451 ft | 267 kts | 251° |
| 2026-04-17 10:40 | 50.16304 | 9.09984 | 6245 ft | 267 kts | 250° |
| 2026-04-17 10:40 | 50.15694 | 9.07248 | 6036 ft | 266 kts | 249° |
| 2026-04-17 10:40 | 50.15063 | 9.04534 | 5828 ft | 265 kts | 249° |
| 2026-04-17 10:41 | 50.14419 | 9.01839 | 5618 ft | 264 kts | 248° |
| 2026-04-17 10:41 | 50.13773 | 8.99172 | 5413 ft | 259 kts | 248° |
| 2026-04-17 10:41 | 50.13146 | 8.96601 | 5207 ft | 253 kts | 248° |
| 2026-04-17 10:41 | 50.12527 | 8.94068 | 5016 ft | 246 kts | 248° |
| 2026-04-17 10:42 | 50.11928 | 8.91608 | 4775 ft | 241 kts | 248° |
| 2026-04-17 10:42 | 50.11333 | 8.89165 | 4437 ft | 240 kts | 248° |
| 2026-04-17 10:42 | 50.10744 | 8.86737 | 4131 ft | 239 kts | 248° |
| 2026-04-17 10:42 | 50.10158 | 8.84316 | 3824 ft | 239 kts | 248° |
| 2026-04-17 10:43 | 50.09571 | 8.81885 | 3503 ft | 239 kts | 248° |
| 2026-04-17 10:43 | 50.08990 | 8.79470 | 3153 ft | 236 kts | 248° |
| 2026-04-17 10:43 | 50.08432 | 8.77150 | 2849 ft | 226 kts | 249° |
| 2026-04-17 10:43 | 50.07892 | 8.74903 | 2576 ft | 215 kts | 249° |
| 2026-04-17 10:44 | 50.07381 | 8.72771 | 2349 ft | 204 kts | 249° |
| 2026-04-17 10:44 | 50.06894 | 8.70743 | 2056 ft | 194 kts | 249° |
| 2026-04-17 10:44 | 50.06433 | 8.68821 | 1758 ft | 182 kts | 249° |
| 2026-04-17 10:44 | 50.06006 | 8.67035 | 1505 ft | 169 kts | 249° |
| 2026-04-17 10:45 | 50.05611 | 8.65380 | 1294 ft | 156 kts | 249° |
| 2026-04-17 10:45 | 50.05235 | 8.63805 | 1098 ft | 154 kts | 249° |
| 2026-04-17 10:45 | 50.04866 | 8.62262 | 902 ft | 153 kts | 249° |
| 2026-04-17 10:45 | 50.04496 | 8.60706 | 702 ft | 153 kts | 248° |
| 2026-04-17 10:46 | 50.04129 | 8.59155 | 491 ft | 152 kts | 248° |
| 2026-04-17 10:46 | 50.03767 | 8.57657 | 371 ft | 136 kts | 250° |
| 2026-04-17 10:46 | 50.03514 | 8.56599 | 363 ft | 70 kts | 250° |
| 2026-04-17 10:46 | 50.03402 | 8.56128 | 365 ft | 38 kts | 249° |
| 2026-04-17 10:47 | 50.03317 | 8.55774 | 361 ft | 32 kts | 250° |
| 2026-04-17 10:47 | 50.03318 | 8.55454 | 359 ft | 25 kts | 279° |
| 2026-04-17 10:47 | 50.03340 | 8.55243 | 351 ft | 12 kts | 281° |
| 2026-04-17 10:47 | 50.03354 | 8.55134 | 352 ft | 10 kts | 281° |
| 2026-04-17 10:48 | 50.03377 | 8.55023 | 361 ft | 12 kts | 298° |
| 2026-04-17 10:48 | 50.03412 | 8.54922 | 359 ft | 8 kts | 298° |
| 2026-04-17 10:48 | 50.03454 | 8.54845 | 359 ft | 11 kts | 326° |
| 2026-04-17 10:48 | 50.03529 | 8.54801 | 357 ft | 12 kts | 341° |
| 2026-04-17 10:49 | 50.03621 | 8.54749 | 355 ft | 15 kts | 339° |
| 2026-04-17 10:49 | 50.03692 | 8.54708 | 356 ft | 8 kts | 342° |
| 2026-04-17 10:49 | 50.03750 | 8.54736 | 360 ft | 12 kts | 48° |
| 2026-04-17 10:49 | 50.03789 | 8.54865 | 360 ft | 15 kts | 69° |
| 2026-04-17 10:50 | 50.03828 | 8.55024 | 364 ft | 15 kts | 69° |
| 2026-04-17 10:50 | 50.03869 | 8.55188 | 363 ft | 18 kts | 69° |
| 2026-04-17 10:50 | 50.03901 | 8.55321 | 359 ft | 12 kts | 69° |
| 2026-04-17 10:50 | 50.03932 | 8.55455 | 364 ft | 14 kts | 71° |
| 2026-04-17 10:51 | 50.03970 | 8.55618 | 363 ft | 18 kts | 70° |
| 2026-04-17 10:51 | 50.04013 | 8.55805 | 364 ft | 17 kts | 70° |
| 2026-04-17 10:51 | 50.04050 | 8.55941 | 363 ft | 10 kts | 51° |
| 2026-04-17 10:51 | 50.04118 | 8.55956 | 367 ft | 12 kts | 340° |
| 2026-04-17 10:52 | 50.04199 | 8.55918 | 361 ft | 10 kts | 0° |
| 2026-04-17 10:52 | 50.04273 | 8.55954 | 368 ft | 12 kts | 4° |
| 2026-04-17 10:52 | 50.04349 | 8.55926 | 368 ft | 8 kts | 341° |
| 2026-04-17 10:52 | 50.04406 | 8.55906 | 369 ft | 9 kts | 5° |
| 2026-04-17 10:53 | 50.04473 | 8.55932 | 369 ft | 9 kts | 17° |
| 2026-04-17 10:53 | 50.04533 | 8.55963 | 368 ft | 9 kts | 23° |
| 2026-04-17 10:53 | 50.04596 | 8.55968 | 368 ft | 5 kts | 346° |
| 2026-04-17 10:53 | 50.04626 | 8.55954 | 368 ft | 3 kts | 340° |
| 2026-04-17 10:54 | 50.04634 | 8.55949 | 368 ft | 1 kts | 340° |
| 2026-04-17 10:54 | 50.04640 | 8.55945 | 370 ft | 0 kts | 340° |
| 2026-04-17 10:54 | 50.04641 | 8.55945 | 370 ft | 0 kts | 340° |